Berit — ZDHX2 — position and weather

sailwx.info

Track history (hours):
 
Tides and Currents Weather Stations Pressure Air Temp Water Temp Dewpoint Dewpoint Depression Visibility Wind Speed Wind Dir Waves Ship Positions

Berit

Last reported at 2014-Oct-23 14:25 UTC. Time now 2014-Oct-23 16:34 UTC.
Position N 58°46' E 005°23'.

Length 83 m; draft 4.8 m.

Type: Cargo ship. MMSI: 236386000.

Date/timePositionNaut miles runAvg speedWind from/ knotsBaromVisibWave heightAir tempDewpointWater temp
2014-Oct-23 14:25N 58°46' E 005°23'6 7.3
2014-Oct-23 13:33N 58°51' E 005°30'8 8.3
2014-Oct-23 12:33N 58°59' E 005°33'6 6.0
2014-Oct-23 11:33N 59°01' E 005°44'4 4.4
2014-Oct-23 10:33N 58°57' E 005°45'0 0.0
2014-Oct-23 09:33N 58°57' E 005°45'0 0.0
2014-Oct-23 08:33N 58°57' E 005°45'0 0.0
2014-Oct-23 07:33N 58°57' E 005°45'0 0.0
2014-Oct-23 06:33N 58°57' E 005°45'0 0.0
2014-Oct-23 05:33N 58°57' E 005°45'0 0.0
2014-Oct-23 04:33N 58°57' E 005°45'0 0.0
2014-Oct-23 03:33N 58°57' E 005°45'0 0.0
2014-Oct-23 02:33N 58°57' E 005°45'0 0.0
2014-Oct-23 01:33N 58°57' E 005°45'0 0.0
2014-Oct-23 00:33N 58°57' E 005°45'0 0.0
2014-Oct-22 23:33N 58°57' E 005°45'0 0.0
2014-Oct-22 22:33N 58°57' E 005°45'0 0.0
2014-Oct-22 21:33N 58°57' E 005°45'0 0.0
2014-Oct-22 20:33N 58°57' E 005°45'0 0.0
2014-Oct-22 19:33N 58°57' E 005°45'0 0.0
2014-Oct-22 18:33N 58°57' E 005°45'0 0.0
2014-Oct-22 17:33N 58°57' E 005°45'0 0.0
2014-Oct-22 16:33N 58°57' E 005°45'0 0.0
2014-Oct-22 15:33N 58°57' E 005°45'0 0.0
2014-Oct-22 14:33N 58°57' E 005°45'0 0.0
2014-Oct-22 13:33N 58°57' E 005°45'0 0.0
2014-Oct-22 12:33N 58°57' E 005°45'0 0.0
2014-Oct-22 11:33N 58°57' E 005°45'0 0.0
2014-Oct-22 10:33N 58°57' E 005°45'0 0.0
2014-Oct-22 09:33N 58°57' E 005°45'0 0.0
2014-Oct-22 08:33N 58°57' E 005°45'0 0.0
2014-Oct-22 07:30N 58°57' E 005°45'0 0.0
2014-Oct-22 06:33N 58°57' E 005°45'0 0.0
2014-Oct-22 05:33N 58°57' E 005°45'0 0.0
2014-Oct-22 04:33N 58°57' E 005°45'0 0.0
2014-Oct-22 03:33N 58°57' E 005°45'0 0.0
2014-Oct-22 02:33N 58°57' E 005°45'0 0.0
2014-Oct-22 01:33N 58°57' E 005°45'0 0.0
2014-Oct-22 00:33N 58°57' E 005°45'0 0.0
2014-Oct-21 23:33N 58°57' E 005°45'0 0.0
2014-Oct-21 22:33N 58°57' E 005°45'0 0.0
2014-Oct-21 21:33N 58°57' E 005°45'0 0.0
2014-Oct-21 20:33N 58°57' E 005°45'0 0.0
2014-Oct-21 19:33N 58°57' E 005°45'0 0.0
2014-Oct-21 18:33N 58°57' E 005°45'0 0.0
2014-Oct-21 17:33N 58°57' E 005°45'0 0.0
2014-Oct-21 16:33N 58°57' E 005°45'0 0.0
2014-Oct-21 15:33N 58°57' E 005°45'0 0.0
2014-Oct-21 14:33N 58°57' E 005°45'0 0.0
2014-Oct-21 13:33N 58°57' E 005°45'0 0.0
2014-Oct-21 12:33N 58°57' E 005°45'0 0.0
2014-Oct-21 11:33N 58°57' E 005°45'0 0.0
2014-Oct-21 10:33N 58°57' E 005°45'0 0.0
2014-Oct-21 09:33N 58°57' E 005°45'0 0.0
2014-Oct-21 08:33N 58°57' E 005°45'0 0.0
2014-Oct-21 07:33N 58°57' E 005°45'0 0.0
2014-Oct-21 06:33N 58°57' E 005°45'0 0.0
2014-Oct-21 05:33N 58°57' E 005°45'0 0.1
2014-Oct-21 04:34N 58°57' E 005°45'6 5.8
2014-Oct-21 03:34N 59°01' E 005°39'7 6.7
2014-Oct-21 02:34N 58°55' E 005°33'6 6.2
2014-Oct-21 01:33N 58°50' E 005°28'4 3.6
2014-Oct-21 00:33N 58°47' E 005°24'16 5.0
2014-Oct-20 21:24N 58°31' E 005°29'4 4.8
2014-Oct-20 20:32N 58°27' E 005°33'5 5.2
2014-Oct-20 19:33N 58°24' E 005°40'6 5.6
2014-Oct-20 18:34N 58°20' E 005°49'5 5.1
2014-Oct-20 17:34N 58°17' E 005°56'5 5.1
2014-Oct-20 16:34N 58°14' E 006°03'6 6.0
2014-Oct-20 15:34N 58°11' E 006°13'7 7.2
2014-Oct-20 14:33N 58°06' E 006°24'103 5.6
2014-Oct-19 20:11N 57°50' E 009°36'5 7.3
2014-Oct-19 19:33N 57°50' E 009°45'8 7.8
2014-Oct-19 18:33N 57°49' E 009°60'9 9.0
2014-Oct-19 17:33N 57°49' E 010°17'9 9.4
2014-Oct-19 16:33N 57°49' E 010°34'8 8.3
2014-Oct-19 15:33N 57°46' E 010°49'9 9.4
2014-Oct-19 14:32N 57°40' E 011°02'10 9.9
2014-Oct-19 13:34N 57°33' E 011°15'1010.2
2014-Oct-19 12:33N 57°25' E 011°27'1110.7
2014-Oct-19 11:33N 57°15' E 011°34'1110.6
2014-Oct-19 10:33N 57°05' E 011°42'1111.0
2014-Oct-19 09:33N 56°55' E 011°48'1010.5
2014-Oct-19 08:33N 56°45' E 011°55'1010.0
2014-Oct-19 07:32N 56°35' E 011°59'9 9.1
2014-Oct-19 06:34N 56°26' E 012°02'9 9.2
2014-Oct-19 05:33N 56°18' E 012°07'10 9.7
2014-Oct-19 04:34N 56°12' E 012°21'1110.7
2014-Oct-19 03:34N 56°05' E 012°36'1010.4
2014-Oct-19 02:33N 55°55' E 012°44'1010.2
2014-Oct-19 01:34N 55°45' E 012°42'1111.1
2014-Oct-19 00:33N 55°34' E 012°42'1010.1
2014-Oct-18 23:33N 55°24' E 012°42'8 8.1
2014-Oct-18 22:33N 55°17' E 012°49'67 9.1
2014-Oct-18 15:11N 55°26' E 014°46'6 9.7
2014-Oct-18 14:32N 55°27' E 014°57'1110.0
2014-Oct-18 13:28N 55°28' E 015°15'  
2014-Oct-14 14:33N 55°26' E 015°26'8 8.3
2014-Oct-14 13:33N 55°25' E 015°12'9 8.7
2014-Oct-14 12:33N 55°24' E 014°56'9 8.7
2014-Oct-14 11:33N 55°23' E 014°41'8 8.3
2014-Oct-14 10:33N 55°17' E 014°31'8 8.1
2014-Oct-14 09:32N 55°11' E 014°21'47 8.7
2014-Oct-14 04:11N 55°15' E 012°60'7 9.2
2014-Oct-14 03:28N 55°16' E 012°48'7 7.8
2014-Oct-14 02:34N 55°20' E 012°38'10 9.7
2014-Oct-14 01:34N 55°30' E 012°41'10 9.5
2014-Oct-14 00:34N 55°39' E 012°41'9 9.3
2014-Oct-13 23:34N 55°48' E 012°42'10 9.6
2014-Oct-13 22:34N 55°58' E 012°38'8 8.1
2014-Oct-13 21:33N 56°05' E 012°34'9 8.9
2014-Oct-13 20:34N 56°10' E 012°20'36 9.0
2014-Oct-13 16:33N 56°43' E 011°52'9 9.5
2014-Oct-13 15:33N 56°52' E 011°48'  
Track history (hours):
 
Tides and Currents Weather Stations Pressure Air Temp Water Temp Dewpoint Dewpoint Depression Visibility Wind Speed Wind Dir Waves Ship Positions

Berit

Last reported at 2014-Oct-23 14:25 UTC. Time now 2014-Oct-23 16:34 UTC.
Position N 58°46' E 005°23'.

Length 83 m; draft 4.8 m.

Type: Cargo ship. MMSI: 236386000.

Date/timePositionNaut miles runAvg speedWind from/ knotsBaromVisibWave heightAir tempDewpointWater temp
2014-Oct-23 14:25N 58°46' E 005°23'6 7.3
2014-Oct-23 13:33N 58°51' E 005°30'8 8.3
2014-Oct-23 12:33N 58°59' E 005°33'6 6.0
2014-Oct-23 11:33N 59°01' E 005°44'4 4.4
2014-Oct-23 10:33N 58°57' E 005°45'0 0.0
2014-Oct-23 09:33N 58°57' E 005°45'0 0.0
2014-Oct-23 08:33N 58°57' E 005°45'0 0.0
2014-Oct-23 07:33N 58°57' E 005°45'0 0.0
2014-Oct-23 06:33N 58°57' E 005°45'0 0.0
2014-Oct-23 05:33N 58°57' E 005°45'0 0.0
2014-Oct-23 04:33N 58°57' E 005°45'0 0.0
2014-Oct-23 03:33N 58°57' E 005°45'0 0.0
2014-Oct-23 02:33N 58°57' E 005°45'0 0.0
2014-Oct-23 01:33N 58°57' E 005°45'0 0.0
2014-Oct-23 00:33N 58°57' E 005°45'0 0.0
2014-Oct-22 23:33N 58°57' E 005°45'0 0.0
2014-Oct-22 22:33N 58°57' E 005°45'0 0.0
2014-Oct-22 21:33N 58°57' E 005°45'0 0.0
2014-Oct-22 20:33N 58°57' E 005°45'0 0.0
2014-Oct-22 19:33N 58°57' E 005°45'0 0.0
2014-Oct-22 18:33N 58°57' E 005°45'0 0.0
2014-Oct-22 17:33N 58°57' E 005°45'0 0.0
2014-Oct-22 16:33N 58°57' E 005°45'0 0.0
2014-Oct-22 15:33N 58°57' E 005°45'0 0.0
2014-Oct-22 14:33N 58°57' E 005°45'0 0.0
2014-Oct-22 13:33N 58°57' E 005°45'0 0.0
2014-Oct-22 12:33N 58°57' E 005°45'0 0.0
2014-Oct-22 11:33N 58°57' E 005°45'0 0.0
2014-Oct-22 10:33N 58°57' E 005°45'0 0.0
2014-Oct-22 09:33N 58°57' E 005°45'0 0.0
2014-Oct-22 08:33N 58°57' E 005°45'0 0.0
2014-Oct-22 07:30N 58°57' E 005°45'0 0.0
2014-Oct-22 06:33N 58°57' E 005°45'0 0.0
2014-Oct-22 05:33N 58°57' E 005°45'0 0.0
2014-Oct-22 04:33N 58°57' E 005°45'0 0.0
2014-Oct-22 03:33N 58°57' E 005°45'0 0.0
2014-Oct-22 02:33N 58°57' E 005°45'0 0.0
2014-Oct-22 01:33N 58°57' E 005°45'0 0.0
2014-Oct-22 00:33N 58°57' E 005°45'0 0.0
2014-Oct-21 23:33N 58°57' E 005°45'0 0.0
2014-Oct-21 22:33N 58°57' E 005°45'0 0.0
2014-Oct-21 21:33N 58°57' E 005°45'0 0.0
2014-Oct-21 20:33N 58°57' E 005°45'0 0.0
2014-Oct-21 19:33N 58°57' E 005°45'0 0.0
2014-Oct-21 18:33N 58°57' E 005°45'0 0.0
2014-Oct-21 17:33N 58°57' E 005°45'0 0.0
2014-Oct-21 16:33N 58°57' E 005°45'0 0.0
2014-Oct-21 15:33N 58°57' E 005°45'0 0.0
2014-Oct-21 14:33N 58°57' E 005°45'0 0.0
2014-Oct-21 13:33N 58°57' E 005°45'0 0.0
2014-Oct-21 12:33N 58°57' E 005°45'0 0.0
2014-Oct-21 11:33N 58°57' E 005°45'0 0.0
2014-Oct-21 10:33N 58°57' E 005°45'0 0.0
2014-Oct-21 09:33N 58°57' E 005°45'0 0.0
2014-Oct-21 08:33N 58°57' E 005°45'0 0.0
2014-Oct-21 07:33N 58°57' E 005°45'0 0.0
2014-Oct-21 06:33N 58°57' E 005°45'0 0.0
2014-Oct-21 05:33N 58°57' E 005°45'0 0.1
2014-Oct-21 04:34N 58°57' E 005°45'6 5.8
2014-Oct-21 03:34N 59°01' E 005°39'7 6.7
2014-Oct-21 02:34N 58°55' E 005°33'6 6.2
2014-Oct-21 01:33N 58°50' E 005°28'4 3.6
2014-Oct-21 00:33N 58°47' E 005°24'16 5.0
2014-Oct-20 21:24N 58°31' E 005°29'4 4.8
2014-Oct-20 20:32N 58°27' E 005°33'5 5.2
2014-Oct-20 19:33N 58°24' E 005°40'6 5.6
2014-Oct-20 18:34N 58°20' E 005°49'5 5.1
2014-Oct-20 17:34N 58°17' E 005°56'5 5.1
2014-Oct-20 16:34N 58°14' E 006°03'6 6.0
2014-Oct-20 15:34N 58°11' E 006°13'7 7.2
2014-Oct-20 14:33N 58°06' E 006°24'103 5.6
2014-Oct-19 20:11N 57°50' E 009°36'5 7.3
2014-Oct-19 19:33N 57°50' E 009°45'8 7.8
2014-Oct-19 18:33N 57°49' E 009°60'9 9.0
2014-Oct-19 17:33N 57°49' E 010°17'9 9.4
2014-Oct-19 16:33N 57°49' E 010°34'8 8.3
2014-Oct-19 15:33N 57°46' E 010°49'9 9.4
2014-Oct-19 14:32N 57°40' E 011°02'10 9.9
2014-Oct-19 13:34N 57°33' E 011°15'1010.2
2014-Oct-19 12:33N 57°25' E 011°27'1110.7
2014-Oct-19 11:33N 57°15' E 011°34'1110.6
2014-Oct-19 10:33N 57°05' E 011°42'1111.0
2014-Oct-19 09:33N 56°55' E 011°48'1010.5
2014-Oct-19 08:33N 56°45' E 011°55'1010.0
2014-Oct-19 07:32N 56°35' E 011°59'9 9.1
2014-Oct-19 06:34N 56°26' E 012°02'9 9.2
2014-Oct-19 05:33N 56°18' E 012°07'10 9.7
2014-Oct-19 04:34N 56°12' E 012°21'1110.7
2014-Oct-19 03:34N 56°05' E 012°36'1010.4
2014-Oct-19 02:33N 55°55' E 012°44'1010.2
2014-Oct-19 01:34N 55°45' E 012°42'1111.1
2014-Oct-19 00:33N 55°34' E 012°42'1010.1
2014-Oct-18 23:33N 55°24' E 012°42'8 8.1
2014-Oct-18 22:33N 55°17' E 012°49'67 9.1
2014-Oct-18 15:11N 55°26' E 014°46'6 9.7
2014-Oct-18 14:32N 55°27' E 014°57'1110.0
2014-Oct-18 13:28N 55°28' E 015°15'  
2014-Oct-14 14:33N 55°26' E 015°26'8 8.3
2014-Oct-14 13:33N 55°25' E 015°12'9 8.7
2014-Oct-14 12:33N 55°24' E 014°56'9 8.7
2014-Oct-14 11:33N 55°23' E 014°41'8 8.3
2014-Oct-14 10:33N 55°17' E 014°31'8 8.1
2014-Oct-14 09:32N 55°11' E 014°21'47 8.7
2014-Oct-14 04:11N 55°15' E 012°60'7 9.2
2014-Oct-14 03:28N 55°16' E 012°48'7 7.8
2014-Oct-14 02:34N 55°20' E 012°38'10 9.7
2014-Oct-14 01:34N 55°30' E 012°41'10 9.5
2014-Oct-14 00:34N 55°39' E 012°41'9 9.3
2014-Oct-13 23:34N 55°48' E 012°42'10 9.6
2014-Oct-13 22:34N 55°58' E 012°38'8 8.1
2014-Oct-13 21:33N 56°05' E 012°34'9 8.9
2014-Oct-13 20:34N 56°10' E 012°20'36 9.0
2014-Oct-13 16:33N 56°43' E 011°52'9 9.5
2014-Oct-13 15:33N 56°52' E 011°48'  

Dump ship's entire track history